Other Surface Observations
Issued by NWS Missoula, MT

Home | Current Version | Previous Version | Text Only | Print | Product List | Glossary On
Versions: 1 2 3 4 5 6 7 8 9 10 11 12 13 14 15 16 17 18 19 20 21 22 23 24 25 26 27 28 29 30 31 32 33 34 35 36 37 38 39 40 41 42 43 44 45 46 47 48 49 50
000
SXUS55 KMSO 192324
OSOMSO
MONTANA AWOS SUMMARY
NATIONAL WEATHER SERVICE MISSOULA MT
423 PM MST SAT APR 19 2014

Montana AWOS Reports

LAUREL      |K6S8 192315Z AUTO 20005KT 40SM 19/M04 A2989 RMK AO1 T01891038
ROUNDUP     |KRPX 192315Z AUTO 14007KT 40SM 18/M09 A2981 RMK AO1 T01831088
MALTA       |KM75 192315Z AUTO 20010G15KT 40SM 18/M06 A2982 RMK AO1 T01781055




USA.gov is the U.S. government's official web portal to all federal, state and local government web resources and services.